Time;durP1;ratioP1;P1;durP2;ratioP2;P2;SDS_P1;SDS_P2;PMS_P1;PMS_P2;Temp;Humidity;BMP_temperature;BMP_pressure;BME280_temperature;BME280_humidity;BME280_pressure;Samples;Min_cycle;Max_cycle;Signal;HPM_P1;HPM_P2
2022/10/26 00:01:14;;;;;;;8.63;5.85;;;;;;;10.10;84.98;96014.79;1685750;83;21087;-61
2022/10/26 00:03:44;;;;;;;8.73;6.05;;;;;;;10.07;85.03;96012.19;1683270;84;21619;-61
2022/10/26 00:06:23;;;;;;;10.25;5.37;;;;;;;10.06;85.08;96014.86;1683690;84;21110;-61
2022/10/26 00:08:51;;;;;;;7.25;4.45;;;;;;;10.01;84.61;96024.13;1684366;85;21075;-61
2022/10/26 00:11:18;;;;;;;7.85;5.35;;;;;;;9.92;84.18;96021.56;1685139;84;21149;-61
2022/10/26 00:13:46;;;;;;;9.93;4.40;;;;;;;9.83;84.85;96013.31;1676974;84;21065;-61
2022/10/26 00:16:24;;;;;;;9.60;4.33;;;;;;;9.87;85.26;96020.28;1700725;83;21027;-61
2022/10/26 00:18:51;;;;;;;6.92;3.72;;;;;;;9.88;85.42;96022.05;1687623;84;21056;-61
2022/10/26 00:21:18;;;;;;;10.18;5.78;;;;;;;9.89;85.07;96023.79;1694645;84;21063;-61
2022/10/26 00:23:45;;;;;;;15.90;9.35;;;;;;;9.79;85.17;96019.94;1711462;83;21457;-62
2022/10/26 00:26:12;;;;;;;13.35;8.23;;;;;;;9.65;85.70;96022.26;1679435;85;21575;-62
2022/10/26 00:28:39;;;;;;;14.23;8.38;;;;;;;9.67;85.99;96023.54;1685379;84;21070;-61
2022/10/26 00:31:14;;;;;;;16.32;9.60;;;;;;;9.67;85.75;96022.22;1683570;84;21097;-61
2022/10/26 00:33:41;;;;;;;23.18;11.35;;;;;;;9.58;85.40;96017.92;1687603;83;21050;-61
2022/10/26 00:36:09;;;;;;;25.27;11.53;;;;;;;9.53;85.65;96014.00;1686361;84;21047;-61
2022/10/26 00:38:36;;;;;;;24.87;10.75;;;;;;;9.51;85.49;96006.99;1718699;83;21062;-61
2022/10/26 00:41:03;;;;;;;22.73;8.35;;;;;;;9.52;85.66;96010.05;1696352;83;21079;-61
2022/10/26 00:43:37;;;;;;;18.32;10.23;;;;;;;9.51;85.58;96012.26;1694741;84;21120;-61
2022/10/26 00:46:09;;;;;;;19.35;9.50;;;;;;;9.47;85.46;96012.70;1706645;84;21062;-61
2022/10/26 00:48:41;;;;;;;21.12;8.73;;;;;;;9.50;85.46;96013.16;1705202;84;21570;-61
2022/10/26 00:51:18;;;;;;;7.87;4.30;;;;;;;9.45;85.20;96009.23;1702695;83;21030;-61
2022/10/26 00:53:46;;;;;;;12.45;6.92;;;;;;;9.42;85.24;96017.14;1701309;84;21088;-61
2022/10/26 00:56:13;;;;;;;11.10;6.60;;;;;;;9.42;85.66;96020.22;1675741;84;21514;-61
2022/10/26 00:58:40;;;;;;;17.98;8.83;;;;;;;9.28;85.41;96016.38;1685014;84;21086;-62
2022/10/26 01:01:06;;;;;;;13.10;7.28;;;;;;;9.22;85.49;96017.72;1683910;84;21012;-61
2022/10/26 01:03:35;;;;;;;15.78;8.33;;;;;;;9.21;85.56;96017.30;1683555;83;20999;-61
2022/10/26 01:06:04;;;;;;;19.05;10.55;;;;;;;9.13;84.71;96019.12;1683375;84;21048;-61
2022/10/26 01:08:33;;;;;;;21.85;10.10;;;;;;;9.12;85.33;96017.34;1682790;83;21760;-62
2022/10/26 01:11:01;;;;;;;8.23;3.92;;;;;;;9.04;84.97;96019.58;1684236;84;21038;-61
2022/10/26 01:13:31;;;;;;;7.30;4.60;;;;;;;9.00;85.22;96014.37;1689281;84;21057;-61
2022/10/26 01:16:30;;;;;;;7.28;3.83;;;;;;;9.02;85.76;96018.74;1683596;84;21059;-62
2022/10/26 01:19:30;;;;;;;14.10;4.17;;;;;;;9.07;86.12;96015.64;1671385;84;21472;-61
2022/10/26 01:22:06;;;;;;;13.43;6.95;;;;;;;9.16;86.39;96017.77;1676436;84;21532;-61
2022/10/26 01:25:23;;;;;;;8.10;5.15;;;;;;;9.02;84.60;96012.16;1714482;83;21106;-61
2022/10/26 01:27:52;;;;;;;7.50;5.12;;;;;;;8.85;85.09;96005.67;1680284;85;21030;-61
2022/10/26 01:30:33;;;;;;;9.63;5.30;;;;;;;8.80;85.70;96003.95;1706757;84;21082;-61
2022/10/26 01:33:14;;;;;;;10.70;6.45;;;;;;;8.86;86.11;96004.77;1704998;84;21536;-61
2022/10/26 01:36:10;;;;;;;6.97;3.05;;;;;;;8.91;85.92;96007.83;1699956;83;21051;-61
2022/10/26 01:39:06;;;;;;;8.15;4.55;;;;;;;8.93;86.45;96007.39;1706695;83;21043;-61
2022/10/26 01:41:50;;;;;;;11.15;4.62;;;;;;;8.92;85.69;96012.20;1691374;83;21169;-61
2022/10/26 01:44:31;;;;;;;8.33;4.90;;;;;;;8.71;84.96;96011.88;1699688;84;21071;-61
2022/10/26 01:47:00;;;;;;;8.55;6.60;;;;;;;8.58;85.35;96018.50;1686031;84;21111;-61
2022/10/26 01:49:32;;;;;;;9.10;4.90;;;;;;;8.53;85.87;96022.91;1711767;83;20999;-61
2022/10/26 01:51:59;;;;;;;4.30;2.58;;;;;;;8.40;85.43;96019.45;1709771;83;21054;-61
2022/10/26 01:54:25;;;;;;;5.15;3.72;;;;;;;8.35;85.93;96016.38;1707955;83;21086;-61
2022/10/26 01:56:56;;;;;;;6.05;4.17;;;;;;;8.37;87.78;96015.48;1706611;83;21090;-61
2022/10/26 01:59:35;;;;;;;5.78;3.67;;;;;;;8.38;88.03;96020.30;1685055;83;21015;-62
2022/10/26 02:02:22;;;;;;;9.28;6.08;;;;;;;8.33;87.57;96020.30;1710121;83;21041;-61
2022/10/26 02:05:19;;;;;;;10.23;5.92;;;;;;;8.30;86.96;96018.14;1668683;83;21551;-61
2022/10/26 02:08:32;;;;;;;8.00;6.40;;;;;;;8.22;86.37;96026.92;1705743;83;21043;-61
2022/10/26 02:11:19;;;;;;;13.18;10.18;;;;;;;8.18;86.22;96024.30;1615143;87;21015;-61
2022/10/26 02:14:06;;;;;;;19.43;12.20;;;;;;;8.19;86.67;96028.69;1683275;84;21093;-61
2022/10/26 02:16:57;;;;;;;13.70;8.35;;;;;;;8.15;86.25;96025.17;1685488;83;21051;-61
2022/10/26 02:19:38;;;;;;;13.17;5.43;;;;;;;8.21;86.79;96025.59;1685723;84;21031;-61
2022/10/26 02:22:28;;;;;;;12.03;6.43;;;;;;;8.30;86.80;96023.40;1689485;84;21054;-61
2022/10/26 02:24:58;;;;;;;8.38;5.58;;;;;;;8.23;86.11;96029.09;1671223;84;21042;-61
2022/10/26 02:27:29;;;;;;;10.20;4.20;;;;;;;8.09;85.50;96027.83;1667076;85;21098;-61
2022/10/26 02:29:58;;;;;;;7.20;3.10;;;;;;;8.00;85.92;96035.28;1666049;83;21038;-61
2022/10/26 02:32:30;;;;;;;4.70;2.80;;;;;;;7.91;85.71;96039.25;1679664;85;21039;-61
2022/10/26 02:35:00;;;;;;;4.33;2.20;;;;;;;7.83;85.88;96034.86;1711069;83;21042;-61
2022/10/26 02:37:29;;;;;;;4.10;2.17;;;;;;;7.83;86.30;96033.11;1714171;83;21085;-61
2022/10/26 02:39:59;;;;;;;6.90;2.03;;;;;;;7.85;86.57;96037.92;1687486;85;21090;-61
2022/10/26 02:42:27;;;;;;;7.53;2.23;;;;;;;7.88;86.58;96039.23;1663365;84;21066;-61
2022/10/26 02:44:59;;;;;;;5.43;2.00;;;;;;;7.90;86.84;96040.55;1679707;85;21569;-61
2022/10/26 02:47:26;;;;;;;2.93;1.33;;;;;;;7.87;86.28;96037.94;1682258;85;21035;-61
2022/10/26 02:49:54;;;;;;;3.10;1.70;;;;;;;7.76;86.08;96041.86;1680415;85;21054;-61
2022/10/26 02:52:46;;;;;;;3.77;1.87;;;;;;;7.68;86.24;96045.80;1680379;85;21039;-61
2022/10/26 02:55:30;;;;;;;2.57;1.90;;;;;;;7.67;86.52;96048.45;1689024;84;21143;-61
2022/10/26 02:58:01;;;;;;;6.00;4.57;;;;;;;7.64;87.27;96045.39;1682357;84;21134;-61
2022/10/26 03:00:29;;;;;;;8.40;3.60;;;;;;;7.73;87.39;96048.44;1679460;85;21051;-61
2022/10/26 03:02:58;;;;;;;77.23;43.57;;;;;;;7.65;86.33;96054.14;1658271;85;21027;-61
2022/10/26 03:05:29;;;;;;;39.37;29.50;;;;;;;7.59;86.95;96061.14;1682714;84;21573;-61
2022/10/26 03:07:56;;;;;;;29.67;23.67;;;;;;;7.58;86.97;96063.34;1680769;85;21519;-61
2022/10/26 03:10:23;;;;;;;16.20;11.43;;;;;;;7.55;87.10;96069.88;1679176;85;21078;-61
2022/10/26 03:12:50;;;;;;;16.97;12.80;;;;;;;7.51;86.92;96069.87;1682001;84;21043;-62
2022/10/26 03:15:18;;;;;;;7.03;5.63;;;;;;;7.48;87.20;96078.62;1680655;85;21118;-62
2022/10/26 03:17:44;;;;;;;5.43;3.50;;;;;;;7.39;86.37;96079.07;1678983;85;21578;-61
2022/10/26 03:20:11;;;;;;;4.13;3.03;;;;;;;7.27;86.41;96082.09;1682136;85;21114;-61
2022/10/26 03:22:39;;;;;;;3.83;2.73;;;;;;;7.23;86.60;96072.48;1679522;84;21130;-61
2022/10/26 03:25:06;;;;;;;5.80;3.10;;;;;;;7.11;86.04;96078.57;1685555;85;21058;-61
2022/10/26 03:27:34;;;;;;;2.27;1.90;;;;;;;7.07;86.85;96089.05;1682202;85;21011;-61
2022/10/26 03:30:00;;;;;;;4.60;2.40;;;;;;;7.00;86.73;96092.52;1684208;84;21039;-61
2022/10/26 03:32:27;;;;;;;4.53;2.30;;;;;;;6.89;86.45;96091.18;1682452;85;21004;-61
2022/10/26 03:34:54;;;;;;;6.33;2.40;;;;;;;6.83;86.77;96091.13;1682574;84;21620;-61
2022/10/26 03:37:21;;;;;;;3.43;2.07;;;;;;;6.78;86.77;96100.33;1682615;85;21078;-61
2022/10/26 03:39:48;;;;;;;4.67;2.50;;;;;;;6.70;86.60;96098.98;1680676;84;21039;-60
2022/10/26 03:42:15;;;;;;;3.17;2.40;;;;;;;6.66;86.82;96101.58;1682395;84;21126;-61
2022/10/26 03:44:42;;;;;;;4.80;3.40;;;;;;;6.64;86.94;96107.24;1682617;85;21142;-61
2022/10/26 03:47:09;;;;;;;3.80;2.30;;;;;;;6.66;87.47;96109.00;1712784;83;20999;-61
2022/10/26 03:49:35;;;;;;;4.23;2.87;;;;;;;6.65;87.31;96098.09;1712869;83;21524;-61
2022/10/26 03:52:02;;;;;;;3.73;2.00;;;;;;;6.64;87.68;96100.69;1681751;84;21039;-61
2022/10/26 03:54:29;;;;;;;3.83;2.10;;;;;;;6.62;87.37;96100.66;1678864;85;21111;-61
2022/10/26 03:56:56;;;;;;;8.20;5.00;;;;;;;6.61;87.67;96105.92;1678797;85;21044;-61
2022/10/26 03:59:23;;;;;;;8.83;3.60;;;;;;;6.56;87.91;96101.96;1684187;85;21054;-61
2022/10/26 04:01:49;;;;;;;10.03;5.03;;;;;;;6.58;88.46;96100.23;1679288;85;21126;-61
2022/10/26 04:04:16;;;;;;;9.37;4.47;;;;;;;6.61;88.15;96099.37;1679814;84;21063;-62
2022/10/26 04:06:43;;;;;;;11.40;5.83;;;;;;;6.63;87.96;96100.26;1682986;84;21588;-61
2022/10/26 04:09:09;;;;;;;7.47;4.77;;;;;;;6.65;88.11;96096.77;1680928;84;21150;-61
2022/10/26 04:11:36;;;;;;;8.77;6.50;;;;;;;6.65;87.64;96094.56;1681939;85;21008;-61
2022/10/26 04:14:02;;;;;;;6.17;5.30;;;;;;;6.68;88.01;96086.73;1685694;85;21648;-61
2022/10/26 04:16:29;;;;;;;9.83;5.90;;;;;;;6.69;87.82;96095.03;1681828;85;21032;-61
2022/10/26 04:18:56;;;;;;;9.70;6.70;;;;;;;6.70;87.87;96088.49;1681352;84;21078;-61
2022/10/26 04:21:23;;;;;;;7.53;5.63;;;;;;;6.70;87.72;96081.94;1677109;85;21091;-61
2022/10/26 04:23:49;;;;;;;8.83;5.30;;;;;;;6.68;87.54;96087.60;1682586;84;21059;-61
2022/10/26 04:26:16;;;;;;;9.63;4.30;;;;;;;6.72;88.29;96094.59;1679801;85;21066;-61
2022/10/26 04:28:43;;;;;;;8.13;4.50;;;;;;;6.75;87.64;96091.55;1683581;85;21557;-61
2022/10/26 04:31:09;;;;;;;6.40;4.23;;;;;;;6.71;87.57;96091.98;1680762;85;21545;-61
2022/10/26 04:33:36;;;;;;;6.53;4.37;;;;;;;6.67;87.39;96085.83;1682249;84;21055;-61
2022/10/26 04:36:03;;;;;;;4.77;4.10;;;;;;;6.74;87.86;96100.30;1683786;85;21603;-61
2022/10/26 04:38:29;;;;;;;6.17;4.13;;;;;;;6.77;87.51;96101.17;1681330;85;21084;-62
2022/10/26 04:40:56;;;;;;;8.37;4.20;;;;;;;6.80;87.29;96106.87;1682154;84;21078;-62
2022/10/26 04:43:23;;;;;;;6.37;3.97;;;;;;;6.76;87.60;96103.38;1682290;85;21036;-61
2022/10/26 04:45:55;;;;;;;7.97;4.60;;;;;;;6.77;87.28;96108.17;1681634;85;21102;-61
2022/10/26 04:48:22;;;;;;;4.83;3.90;;;;;;;6.66;86.59;96105.52;1678811;85;21050;-62
2022/10/26 04:50:49;;;;;;;4.87;3.67;;;;;;;6.58;86.73;96110.72;1679140;85;21078;-61
2022/10/26 04:53:16;;;;;;;6.40;3.33;;;;;;;6.55;86.72;96110.70;1679337;85;21079;-61
2022/10/26 04:55:43;;;;;;;3.50;2.90;;;;;;;6.59;87.53;96115.52;1680779;84;21051;-61
2022/10/26 04:58:10;;;;;;;7.67;4.23;;;;;;;6.54;86.91;96118.11;1681589;85;21163;-61
2022/10/26 05:00:37;;;;;;;6.03;3.00;;;;;;;6.52;87.58;96115.91;1681861;84;21071;-61
2022/10/26 05:03:06;;;;;;;7.97;3.37;;;;;;;6.50;86.96;96128.13;1685714;85;21062;-61
2022/10/26 05:05:36;;;;;;;9.57;3.77;;;;;;;6.49;87.35;96135.13;1679982;84;21141;-61
2022/10/26 05:08:04;;;;;;;9.67;3.77;;;;;;;6.49;87.19;96132.94;1680049;84;21066;-62
2022/10/26 05:10:31;;;;;;;8.83;5.17;;;;;;;6.49;87.54;96140.80;1681220;84;21067;-61
2022/10/26 05:12:59;;;;;;;8.03;5.40;;;;;;;6.43;86.78;96144.71;1682845;84;21050;-61
2022/10/26 05:15:27;;;;;;;10.37;6.27;;;;;;;6.37;86.95;96141.59;1683326;85;21043;-61
2022/10/26 05:18:01;;;;;;;12.07;6.20;;;;;;;6.29;86.56;96152.47;1681870;84;21075;-62
2022/10/26 05:20:31;;;;;;;6.30;4.83;;;;;;;6.20;86.59;96147.15;1663701;85;21509;-61
2022/10/26 05:23:00;;;;;;;6.33;3.20;;;;;;;6.21;87.15;96148.48;1683735;85;21082;-62
2022/10/26 05:25:30;;;;;;;5.80;2.37;;;;;;;6.23;87.17;96155.06;1656262;85;21041;-61
2022/10/26 05:27:59;;;;;;;3.90;2.80;;;;;;;6.28;87.37;96155.53;1680238;85;21051;-61
2022/10/26 05:30:26;;;;;;;8.67;3.23;;;;;;;6.29;87.32;96154.65;1679712;84;21051;-61
2022/10/26 05:32:58;;;;;;;6.00;4.20;;;;;;;6.29;87.27;96169.50;1681823;85;21059;-61
2022/10/26 05:35:26;;;;;;;9.47;7.37;;;;;;;6.31;87.51;96171.70;1681973;84;21067;-61
2022/10/26 05:37:53;;;;;;;11.43;6.43;;;;;;;6.34;87.76;96165.17;1682507;84;21555;-61
2022/10/26 05:40:20;;;;;;;11.07;7.27;;;;;;;6.42;88.12;96170.02;1681931;84;21016;-61
2022/10/26 05:42:47;;;;;;;10.80;8.63;;;;;;;6.48;87.79;96175.77;1679469;85;21506;-61
2022/10/26 05:45:14;;;;;;;13.90;8.67;;;;;;;6.48;87.69;96168.77;1696899;83;21105;-61
2022/10/26 05:47:43;;;;;;;16.27;8.07;;;;;;;6.55;87.79;96177.97;1714672;83;21515;-61
2022/10/26 05:50:11;;;;;;;12.60;9.03;;;;;;;6.71;88.34;96175.90;1696634;84;21034;-61
2022/10/26 05:52:43;;;;;;;13.60;8.90;;;;;;;6.86;88.02;96174.67;1685909;84;21030;-61
2022/10/26 05:55:13;;;;;;;12.83;8.20;;;;;;;6.89;87.12;96177.74;1704943;83;21033;-61
2022/10/26 05:57:40;;;;;;;10.17;6.97;;;;;;;6.97;87.42;96181.72;1704742;83;21051;-62
2022/10/26 06:00:18;;;;;;;11.07;8.77;;;;;;;7.06;87.19;96183.08;1700516;83;21122;-61
2022/10/26 06:03:35;;;;;;;13.50;8.10;;;;;;;7.09;86.67;96192.27;1711043;83;21620;-61
2022/10/26 06:06:03;;;;;;;15.30;8.90;;;;;;;7.09;87.05;96180.02;1668600;85;21053;-62
2022/10/26 06:08:31;;;;;;;10.67;7.13;;;;;;;7.17;86.63;96187.92;1684571;84;21031;-61
2022/10/26 06:10:58;;;;;;;9.53;7.10;;;;;;;7.17;86.54;96191.86;1685983;84;21039;-62
2022/10/26 06:13:26;;;;;;;9.33;6.83;;;;;;;7.23;86.67;96193.22;1684335;84;21048;-61
2022/10/26 06:16:21;;;;;;;10.80;5.73;;;;;;;7.30;87.08;96198.91;1684667;84;20991;-61
2022/10/26 06:19:20;;;;;;;9.43;5.60;;;;;;;7.39;86.71;96190.20;1698531;83;21077;-61
2022/10/26 06:22:13;;;;;;;10.53;6.53;;;;;;;7.41;86.48;96192.41;1704354;83;21581;-61
2022/10/26 06:25:11;;;;;;;10.15;5.87;;;;;;;7.45;86.63;96198.53;1704927;83;21038;-61
2022/10/26 06:28:17;;;;;;;10.20;6.30;;;;;;;7.50;86.49;96191.09;1693633;83;21030;-61
2022/10/26 06:30:44;;;;;;;8.00;5.63;;;;;;;7.57;86.67;96194.19;1701007;83;21130;-61
2022/10/26 06:33:13;;;;;;;9.87;5.60;;;;;;;7.68;86.68;96199.91;1701143;83;21073;-61
2022/10/26 06:35:45;;;;;;;11.70;6.57;;;;;;;7.75;86.47;96197.29;1699319;84;21035;-62
2022/10/26 06:38:18;;;;;;;11.60;7.13;;;;;;;7.85;86.58;96198.63;1681686;83;21042;-62
2022/10/26 06:40:51;;;;;;;13.63;7.93;;;;;;;7.94;86.37;96190.77;1682889;83;21079;-61
2022/10/26 06:43:30;;;;;;;9.68;6.95;;;;;;;8.02;86.45;96198.22;1683258;85;21543;-62
2022/10/26 06:46:10;;;;;;;11.75;7.67;;;;;;;8.13;86.38;96202.16;1700777;83;21043;-62
2022/10/26 06:48:45;;;;;;;10.50;7.53;;;;;;;8.24;86.43;96199.12;1688634;83;21079;-61
2022/10/26 06:51:14;;;;;;;12.78;8.75;;;;;;;8.38;86.44;96203.91;1683232;84;21190;-61
2022/10/26 06:54:05;;;;;;;12.05;7.53;;;;;;;8.51;85.81;96197.37;1683344;84;21070;-61
2022/10/26 06:56:32;;;;;;;10.43;6.83;;;;;;;8.59;85.79;96200.45;1683536;84;21102;-61
2022/10/26 06:59:07;;;;;;;10.13;6.08;;;;;;;8.70;85.60;96196.92;1683872;85;21070;-61
2022/10/26 07:01:34;;;;;;;12.30;5.20;;;;;;;8.80;85.28;96201.29;1680708;85;21038;-61
2022/10/26 07:04:00;;;;;;;11.33;5.45;;;;;;;8.93;85.33;96203.00;1683587;85;21098;-61
2022/10/26 07:06:27;;;;;;;9.75;5.30;;;;;;;9.07;85.19;96198.59;1683852;84;21023;-61
2022/10/26 07:08:54;;;;;;;9.90;5.75;;;;;;;9.23;85.35;96205.12;1683272;84;21043;-61
2022/10/26 07:11:21;;;;;;;10.08;6.17;;;;;;;9.39;85.38;96197.58;1717511;83;21003;-62
2022/10/26 07:13:49;;;;;;;10.48;5.90;;;;;;;9.53;85.23;96192.27;1697977;83;21031;-61
2022/10/26 07:16:16;;;;;;;8.48;5.62;;;;;;;9.71;85.12;96197.87;1700854;83;21066;-61
2022/10/26 07:18:42;;;;;;;10.05;8.60;;;;;;;9.89;84.73;96192.48;1695634;83;21086;-61
2022/10/26 07:21:09;;;;;;;7.62;5.62;;;;;;;10.07;84.94;96195.44;1680695;84;20999;-61
2022/10/26 07:23:36;;;;;;;9.55;5.72;;;;;;;10.26;84.57;96198.83;1698967;83;21118;-61
2022/10/26 07:26:02;;;;;;;10.95;6.12;;;;;;;10.48;84.79;96206.59;1692616;83;20988;-61
2022/10/26 07:28:29;;;;;;;14.30;8.73;;;;;;;10.69;84.00;96197.63;1707865;83;21058;-62
2022/10/26 07:30:58;;;;;;;171.05;120.82;;;;;;;10.88;83.96;96198.30;1695140;84;21101;-61
2022/10/26 07:33:25;;;;;;;87.92;63.50;;;;;;;10.94;82.99;96196.48;1700226;84;21150;-61
2022/10/26 07:35:53;;;;;;;26.62;18.15;;;;;;;11.01;83.06;96199.92;1685197;83;21070;-61
2022/10/26 07:38:19;;;;;;;17.12;12.80;;;;;;;11.12;82.96;96202.02;1684679;84;21102;-62
2022/10/26 07:40:48;;;;;;;8.20;5.10;;;;;;;11.25;83.37;96199.66;1683182;84;21027;-61
2022/10/26 07:43:15;;;;;;;11.57;9.08;;;;;;;11.46;83.11;96193.68;1691674;84;21051;-61
2022/10/26 07:45:42;;;;;;;12.28;8.55;;;;;;;11.65;83.12;96190.37;1708687;83;21106;-61
2022/10/26 07:48:09;;;;;;;13.30;8.78;;;;;;;11.79;82.72;96191.07;1709034;83;21041;-61
2022/10/26 07:50:36;;;;;;;13.78;9.73;;;;;;;11.89;82.08;96188.75;1703347;83;21136;-61
2022/10/26 07:53:03;;;;;;;9.13;6.10;;;;;;;11.95;81.66;96190.43;1694013;83;21560;-61
2022/10/26 07:55:29;;;;;;;9.05;5.40;;;;;;;12.07;82.43;96195.55;1683365;84;21003;-61
2022/10/26 07:57:56;;;;;;;8.78;5.42;;;;;;;12.27;82.31;96183.34;1706354;83;21075;-62
2022/10/26 08:00:24;;;;;;;9.33;6.12;;;;;;;12.49;82.66;96186.48;1704450;84;21036;-61
2022/10/26 08:02:51;;;;;;;8.43;6.60;;;;;;;12.70;82.52;96187.92;1701897;83;21022;-61
2022/10/26 08:05:17;;;;;;;6.85;5.80;;;;;;;12.90;81.39;96192.86;1695026;83;21045;-61
2022/10/26 08:07:45;;;;;;;8.20;6.22;;;;;;;13.04;81.33;96179.34;1702502;83;21572;-61
2022/10/26 08:10:13;;;;;;;8.70;5.30;;;;;;;13.18;80.99;96177.31;1680700;84;21576;-61
2022/10/26 08:12:42;;;;;;;9.83;5.00;;;;;;;13.31;80.52;96175.79;1680920;85;21051;-61
2022/10/26 08:15:10;;;;;;;10.28;5.20;;;;;;;13.43;80.35;96178.20;1681508;83;21130;-61
2022/10/26 08:17:37;;;;;;;6.80;4.60;;;;;;;13.56;78.99;96179.68;1679793;84;21126;-62
2022/10/26 08:20:05;;;;;;;7.37;4.75;;;;;;;13.66;79.35;96169.76;1682629;84;21076;-61
2022/10/26 08:22:32;;;;;;;10.13;4.30;;;;;;;13.79;79.21;96172.55;1682204;84;21106;-61
2022/10/26 08:24:58;;;;;;;9.10;4.28;;;;;;;13.91;78.49;96168.77;1684286;85;21114;-61
2022/10/26 08:27:25;;;;;;;6.40;3.75;;;;;;;14.02;78.43;96177.34;1683997;85;21089;-61
2022/10/26 08:29:52;;;;;;;6.80;3.77;;;;;;;14.22;77.08;96182.19;1677371;85;21073;-61
2022/10/26 08:32:19;;;;;;;6.00;3.67;;;;;;;14.28;76.76;96170.55;1678399;85;21103;-61
2022/10/26 08:34:46;;;;;;;8.30;3.87;;;;;;;14.28;76.76;96170.55;1680277;85;21174;-61
2022/10/26 08:37:12;;;;;;;9.55;4.22;;;;;;;14.37;76.11;96175.64;1678519;84;21115;-61
2022/10/26 08:39:39;;;;;;;7.43;4.33;;;;;;;14.51;76.12;96177.95;1686169;84;21501;-61
2022/10/26 08:42:11;;;;;;;4.15;3.17;;;;;;;14.64;75.89;96180.77;1682240;84;21067;-61
2022/10/26 08:44:48;;;;;;;6.70;3.40;;;;;;;14.74;75.10;96179.19;1658311;85;21085;-61
2022/10/26 08:47:22;;;;;;;6.58;3.37;;;;;;;14.93;71.82;96181.33;1678016;84;21047;-61
2022/10/26 08:49:55;;;;;;;4.53;2.72;;;;;;;14.93;71.82;96181.33;1682169;85;21093;-62
2022/10/26 08:52:30;;;;;;;4.90;3.40;;;;;;;15.00;72.76;96179.39;1679244;85;21067;-62
2022/10/26 08:54:59;;;;;;;5.97;3.40;;;;;;;15.06;70.42;96185.86;1681743;85;21313;-61
2022/10/26 08:57:31;;;;;;;5.85;3.20;;;;;;;15.14;69.21;96184.33;1681995;84;21066;-61
2022/10/26 09:00:11;;;;;;;6.97;4.17;;;;;;;15.23;70.17;96182.76;1680407;85;21565;-62
2022/10/26 09:02:38;;;;;;;9.23;3.77;;;;;;;15.29;69.37;96183.04;1682344;85;21233;-61
2022/10/26 09:05:18;;;;;;;6.15;3.62;;;;;;;15.33;69.32;96182.91;1682096;84;21074;-61
2022/10/26 09:08:08;;;;;;;6.30;2.67;;;;;;;15.43;68.64;96182.20;1682458;85;21011;-61
2022/10/26 09:10:49;;;;;;;7.25;3.52;;;;;;;15.48;68.52;96178.09;1682937;85;21609;-61
2022/10/26 09:13:39;;;;;;;7.70;3.33;;;;;;;15.57;68.78;96184.02;1684525;84;21059;-61
2022/10/26 09:16:20;;;;;;;3.67;2.47;;;;;;;15.70;66.47;96179.69;1681509;85;21083;-61
2022/10/26 09:19:01;;;;;;;3.45;2.20;;;;;;;15.79;67.49;96179.42;1673460;84;21536;-61
2022/10/26 09:21:46;;;;;;;2.98;2.60;;;;;;;15.88;66.21;96183.62;1665733;84;21083;-61
2022/10/26 09:24:23;;;;;;;4.47;2.25;;;;;;;16.00;66.90;96182.78;1680647;84;21581;-61
2022/10/26 09:27:20;;;;;;;3.20;2.22;;;;;;;16.18;67.34;96187.13;1681672;85;21055;-61
2022/10/26 09:29:49;;;;;;;4.87;1.80;;;;;;;16.30;66.19;96188.05;1687018;84;21051;-61
2022/10/26 09:32:35;;;;;;;3.22;2.17;;;;;;;16.42;65.55;96192.99;1677537;84;21501;-62
2022/10/26 09:35:07;;;;;;;2.60;2.00;;;;;;;16.51;65.23;96194.50;1679930;85;21086;-61
2022/10/26 09:37:45;;;;;;;4.75;1.75;;;;;;;16.56;65.21;96190.37;1666137;84;21038;-61
2022/10/26 09:40:35;;;;;;;3.22;1.60;;;;;;;16.64;64.31;96186.98;1711263;83;21038;-61
2022/10/26 09:43:19;;;;;;;7.08;1.82;;;;;;;16.79;63.53;96184.30;1709212;83;21069;-61
2022/10/26 09:45:50;;;;;;;4.92;1.77;;;;;;;16.85;63.01;96191.61;1709217;83;21112;-61
2022/10/26 09:48:49;;;;;;;5.22;1.77;;;;;;;16.76;61.74;96185.72;1706222;83;21030;-61
2022/10/26 09:51:16;;;;;;;3.22;1.70;;;;;;;16.79;62.02;96189.63;1706383;83;21035;-61
2022/10/26 09:53:43;;;;;;;6.85;2.22;;;;;;;16.88;62.04;96191.97;1671574;85;21143;-61
2022/10/26 09:56:12;;;;;;;7.85;2.50;;;;;;;16.92;61.35;96199.42;1683862;85;21521;-61
2022/10/26 09:58:47;;;;;;;3.75;2.65;;;;;;;16.99;62.65;96191.63;1685752;85;21035;-61
2022/10/26 10:01:33;;;;;;;6.87;2.35;;;;;;;16.91;61.67;96189.66;1679029;85;21051;-61
2022/10/26 10:04:21;;;;;;;4.92;1.90;;;;;;;16.90;61.43;96186.59;1683802;85;21038;-61
2022/10/26 10:07:04;;;;;;;5.67;3.15;;;;;;;17.13;62.11;96189.80;1680583;85;21079;-61
2022/10/26 10:09:36;;;;;;;;;;;;;;;17.58;61.18;96193.09;1683523;85;21012;-61
2022/10/26 10:12:03;;;;;;;3.83;2.15;;;;;;;18.02;59.07;96181.26;1680724;85;20461;-61
2022/10/26 10:14:43;;;;;;;4.22;2.20;;;;;;;18.42;57.98;96189.91;1679111;85;21054;-61
2022/10/26 10:17:21;;;;;;;3.70;1.80;;;;;;;18.85;56.42;96184.62;1678999;85;21091;-62
2022/10/26 10:19:49;;;;;;;3.62;2.10;;;;;;;19.18;55.57;96181.00;1683960;85;21061;-61
2022/10/26 10:22:25;;;;;;;6.67;1.70;;;;;;;19.15;55.55;96193.14;1679330;84;21089;-61
2022/10/26 10:24:55;;;;;;;4.30;1.72;;;;;;;18.99;53.88;96191.13;1682517;84;21065;-61
2022/10/26 10:27:23;;;;;;;4.17;1.30;;;;;;;19.18;53.59;96192.56;1682886;84;21118;-61
2022/10/26 10:29:56;;;;;;;2.50;1.40;;;;;;;19.21;52.98;96190.23;1686849;84;21092;-61
2022/10/26 10:32:29;;;;;;;4.20;1.57;;;;;;;19.55;50.39;96186.92;1675887;85;21063;-61
2022/10/26 10:34:58;;;;;;;4.22;1.30;;;;;;;20.09;51.47;96181.84;1682097;85;21090;-61
2022/10/26 10:37:43;;;;;;;1.27;1.02;;;;;;;20.49;46.48;96178.61;1679492;85;21035;-61
2022/10/26 10:40:23;;;;;;;1.25;0.82;;;;;;;20.85;44.12;96179.97;1682919;84;21134;-61
2022/10/26 10:42:54;;;;;;;1.35;1.00;;;;;;;20.97;42.58;96183.87;1680640;84;21086;-61
2022/10/26 10:45:28;;;;;;;1.75;1.25;;;;;;;21.11;43.65;96186.70;1649978;85;21591;-61
2022/10/26 10:48:15;;;;;;;3.60;2.15;;;;;;;20.79;44.17;96184.77;1683698;85;21043;-61
2022/10/26 10:51:09;;;;;;;2.65;2.15;;;;;;;20.40;45.52;96189.77;1679741;85;21648;-61
2022/10/26 10:53:52;;;;;;;5.10;1.35;;;;;;;20.03;46.52;96182.11;1675578;84;21043;-61
2022/10/26 10:56:41;;;;;;;3.08;1.75;;;;;;;19.61;47.40;96189.81;1680211;85;20996;-61
2022/10/26 10:59:40;;;;;;;2.58;1.70;;;;;;;19.66;49.55;96187.80;1679915;85;21055;-61
2022/10/26 11:02:26;;;;;;;3.08;2.05;;;;;;;20.08;49.47;96190.36;1681747;85;21231;-62
2022/10/26 11:05:22;;;;;;;3.30;1.75;;;;;;;20.73;48.25;96192.64;1681606;84;21050;-62
2022/10/26 11:08:02;;;;;;;3.52;1.45;;;;;;;20.74;47.22;96193.92;1679797;85;21035;-62
2022/10/26 11:10:37;;;;;;;3.95;1.40;;;;;;;20.44;44.72;96188.20;1714927;83;21069;-61
2022/10/26 11:13:15;;;;;;;1.70;1.07;;;;;;;20.57;43.78;96195.22;1687034;84;21594;-62
2022/10/26 11:15:44;;;;;;;5.55;1.12;;;;;;;20.63;43.24;96196.24;1679270;85;21106;-62
2022/10/26 11:18:18;;;;;;;4.72;1.40;;;;;;;21.13;44.08;96198.23;1679722;83;21043;-61
2022/10/26 11:21:02;;;;;;;3.00;1.10;;;;;;;21.84;43.03;96193.23;1680269;85;21074;-61
2022/10/26 11:23:46;;;;;;;3.35;1.00;;;;;;;22.37;38.05;96191.28;1682455;84;21051;-61
2022/10/26 11:26:26;;;;;;;2.62;1.00;;;;;;;22.28;38.23;96195.36;1670824;85;21027;-62
2022/10/26 11:29:04;;;;;;;1.20;1.00;;;;;;;22.62;39.72;96190.28;1684740;84;21055;-62
2022/10/26 11:31:40;;;;;;;1.40;1.10;;;;;;;22.97;37.28;96195.50;1681596;85;21031;-61
2022/10/26 11:34:34;;;;;;;2.10;1.17;;;;;;;23.51;37.60;96190.95;1683413;85;21091;-62
2022/10/26 11:37:46;;;;;;;3.33;1.12;;;;;;;23.66;36.84;96187.36;1679127;85;21051;-62
2022/10/26 11:40:37;;;;;;;1.92;1.20;;;;;;;24.10;37.75;96189.63;1671377;84;21126;-61
2022/10/26 11:43:44;;;;;;;1.50;1.30;;;;;;;24.16;36.38;96189.23;1687510;84;21052;-62
2022/10/26 11:46:35;;;;;;;1.85;1.15;;;;;;;24.34;35.65;96189.89;1683317;84;21079;-62
2022/10/26 11:49:18;;;;;;;1.52;1.10;;;;;;;24.43;35.57;96188.45;1680766;85;21505;-62
2022/10/26 11:52:16;;;;;;;1.27;1.00;;;;;;;24.67;35.25;96200.39;1681969;85;21007;-62
2022/10/26 11:54:51;;;;;;;2.75;1.05;;;;;;;24.69;34.25;96197.09;1682780;85;21062;-62
2022/10/26 11:57:20;;;;;;;4.65;3.10;;;;;;;25.04;33.73;96197.45;1680278;85;21177;-62
2022/10/26 11:59:51;;;;;;;3.72;1.90;;;;;;;25.22;34.18;96199.47;1680754;85;21159;-62
2022/10/26 12:02:24;;;;;;;3.12;1.52;;;;;;;25.54;34.48;96197.75;1684513;84;21047;-62
2022/10/26 12:05:17;;;;;;;2.70;0.95;;;;;;;25.83;35.42;96197.09;1680084;85;21051;-62
2022/10/26 12:07:57;;;;;;;3.40;0.90;;;;;;;25.98;31.77;96191.59;1682262;84;21126;-62